Latest Weather Observations for Jacup

IDW60801

Issued at 11:35 am WST Tuesday 21 October 2014 (issued every 30 minutes, with the page automatically refreshed every 10 minutes)

About weather observations | Map of weather stations | Latest weather observations for WA | Other Formats
Station Details ID: 010905 Name: JACUP Lat: -33.89 Lon: 119.11 Height: 305.0 m
Data from the previous 72 hours. | See also: Recent months at Jacup
Date/Time
WST
Temp
°C
App
Temp
°C
Dew
Point
Rel
Hum
%
Delta-T
°C
Wind Press
QNH
hPa
Press
MSL
hPa
Rain
since 9 am
mm
Dir
 
Spd
km/h
Gust
km/h
Spd
kts
Gust
kts
21/11:30am 20.2 18.5 9.7 51 5.7 WNW 9 15 5 8 1022.8 1022.5 0.0
21/11:00am 18.2 16.2 8.5 53 5.1 SSW 9 15 5 8 1023.0 1022.7 0.0
21/10:30am 17.6 15.5 9.8 60 4.2 SW 11 35 6 19 1023.2 1022.9 0.0
21/10:00am 17.3 16.0 10.0 62 3.9 S 7 15 4 8 1023.1 1022.8 0.0
21/09:30am 16.2 15.0 9.4 64 3.6 NW 6 11 3 6 1023.1 1022.8 0.0
21/09:00am 15.8 13.7 9.9 68 3.1 SW 11 20 6 11 1023.0 1022.7 4.4
21/08:30am 15.2 12.8 10.2 72 2.7 SSW 13 24 7 13 1023.0 1022.7 4.4
21/08:00am 14.3 11.6 10.3 77 2.1 SW 15 22 8 12 1022.9 1022.6 4.4
21/07:30am 13.0 11.0 10.2 83 1.5 WSW 11 17 6 9 1022.7 1022.4 4.4
21/07:00am 11.7 9.7 10.3 91 0.7 WSW 11 17 6 9 1022.4 1022.1 4.4
21/06:30am 10.2 8.5 9.7 97 0.3 WNW 9 13 5 7 1021.9 1021.6 4.4
21/06:00am 9.3 7.9 9.0 98 0.1 WNW 6 9 3 5 1021.5 1021.1 4.4
21/05:30am 8.0 6.1 7.6 97 0.2 NW 7 9 4 5 1021.1 1020.7 4.4
21/05:00am 8.3 6.5 7.9 97 0.2 WNW 7 11 4 6 1020.6 1020.3 4.4
21/04:30am 8.1 6.2 7.7 97 0.2 W 7 11 4 6 1020.1 1019.8 4.4
21/04:00am 8.2 6.3 7.6 96 0.3 W 7 9 4 5 1019.9 1019.6 4.4
21/03:30am 8.5 6.3 7.9 96 0.3 W 9 11 5 6 1019.7 1019.4 4.4
21/03:00am 8.7 6.9 8.1 96 0.3 W 7 11 4 6 1019.4 1019.1 4.4
21/02:30am 8.9 7.1 8.1 95 0.4 WNW 7 9 4 5 1019.3 1019.0 4.4
21/02:00am 9.6 7.6 8.8 95 0.4 WSW 9 13 5 7 1019.1 1018.8 4.4
21/01:30am 10.2 8.4 9.4 95 0.4 WSW 9 13 5 7 1019.1 1018.8 4.4
21/01:00am 10.6 8.5 9.7 94 0.5 SW 11 17 6 9 1019.1 1018.8 4.4
21/12:30am 10.6 8.5 9.8 95 0.4 WSW 11 17 6 9 1019.3 1019.0 4.4
21/12:00am 11.0 8.6 9.9 93 0.6 SW 13 19 7 10 1019.5 1019.2 4.4
 
Date/Time
WST
Temp
°C
App
Temp
°C
Dew
Point
Rel
Hum
%
Delta-T
°C
Wind Press
QNH
hPa
Press
MSL
hPa
Rain
since 9 am
mm
Dir
 
Spd
km/h
Gust
km/h
Spd
kts
Gust
kts
20/11:30pm 11.7 8.2 10.3 91 0.7 WSW 19 24 10 13 1019.7 1019.4 4.4
20/11:00pm 11.8 9.1 10.4 91 0.7 SW 15 26 8 14 1019.3 1019.0 4.4
20/10:30pm 12.1 9.4 10.5 90 0.8 SW 15 22 8 12 1019.2 1018.9 4.4
20/10:00pm 12.1 9.9 10.7 91 0.7 WSW 13 17 7 9 1019.4 1019.1 4.4
20/09:30pm 12.0 9.0 10.6 91 0.7 SW 17 24 9 13 1019.5 1019.2 4.4
20/09:00pm 12.5 10.2 10.6 88 1.0 WSW 13 20 7 11 1019.5 1019.2 4.4
20/08:30pm 12.9 10.4 11.0 88 1.0 WSW 15 24 8 13 1019.6 1019.3 4.4
20/08:00pm 12.6 10.8 10.8 89 1.0 SW 11 19 6 10 1019.1 1018.8 4.4
20/07:30pm 13.3 10.0 11.0 86 1.2 SW 19 26 10 14 1018.3 1017.9 4.4
20/07:00pm 13.8 10.9 11.1 84 1.4 SW 17 26 9 14 1018.1 1017.7 4.4
20/06:30pm 14.4 11.2 11.4 82 1.6 SW 19 26 10 14 1017.5 1017.1 4.4
20/06:00pm 15.5 11.5 11.7 78 2.1 SW 24 37 13 20 1016.8 1016.5 4.4
20/05:30pm 16.4 12.4 11.8 74 2.5 SW 24 43 13 23 1016.2 1015.8 4.4
20/05:00pm 16.7 12.1 12.3 75 2.5 SW 28 41 15 22 1015.6 1015.2 4.4
20/04:30pm 17.8 13.3 12.7 72 2.9 SW 28 41 15 22 1015.1 1014.7 4.4
20/04:00pm 18.5 15.5 12.7 69 3.3 SSW 20 32 11 17 1014.5 1014.1 4.4
20/03:30pm 18.7 15.5 13.1 70 3.2 SW 22 33 12 18 1013.7 1013.4 4.4
20/03:00pm 19.3 16.6 13.5 69 3.4 SW 20 35 11 19 1013.2 1012.8 4.4
20/02:30pm 18.4 15.8 13.7 74 2.7 SW 20 33 11 18 1013.0 1012.6 4.4
20/02:00pm 18.6 16.2 14.5 77 2.4 SW 20 30 11 16 1013.0 1012.6 4.4
20/01:30pm 16.5 13.2 15.0 91 0.9 SW 26 44 14 24 1013.2 1012.8 4.2
20/01:00pm 16.6 14.7 15.3 92 0.8 SSW 19 26 10 14 1013.2 1012.8 4.2
20/12:30pm 18.7 15.9 14.4 76 2.5 W 22 35 12 19 1013.0 1012.6 1.2
20/12:00pm 19.0 17.8 16.0 83 1.8 WNW 17 26 9 14 1012.8 1012.4 1.2
20/11:30am 17.0 15.6 14.5 85 1.5 NW 15 22 8 12 1012.8 1012.4 0.2
20/11:00am 19.4 17.8 14.9 75 2.7 W 17 26 9 14 1012.5 1012.1 0.0
20/10:30am 17.3 15.0 14.2 82 1.8 W 19 28 10 15 1012.6 1012.2 0.0
20/10:00am 16.5 14.6 14.2 86 1.3 WNW 17 26 9 14 1012.6 1012.2 0.0
20/09:30am 15.1 13.6 14.3 95 0.5 WNW 15 22 8 12 1012.7 1012.3 0.0
20/09:00am 13.8 11.5 12.9 94 0.5 WNW 17 26 9 14 1012.7 1012.3 9.2
20/08:30am 14.7 11.9 12.7 88 1.1 WNW 19 28 10 15 1012.6 1012.2 9.0
20/08:00am 15.1 13.5 13.8 92 0.7 NW 15 24 8 13 1012.3 1011.9 9.0
20/07:30am 13.8 11.9 13.0 95 0.4 NW 15 26 8 14 1012.1 1011.7 9.0
20/07:00am 12.9 11.2 12.4 97 0.3 NW 13 20 7 11 1012.1 1011.7 9.0
20/06:30am 12.6 10.9 12.3 98 0.2 NW 13 22 7 12 1012.0 1011.6 8.8
20/06:00am 12.2 10.7 11.9 98 0.2 NNW 11 17 6 9 1011.7 1011.3 8.8
20/05:30am 12.1 10.6 11.8 98 0.2 NNW 11 15 6 8 1011.2 1010.8 8.8
20/05:00am 12.0 10.8 11.7 98 0.2 WNW 9 15 5 8 1010.8 1010.4 8.8
20/04:30am 12.0 10.8 11.7 98 0.2 WNW 9 11 5 6 1010.4 1010.0 8.6
20/04:00am 12.2 11.1 11.9 98 0.2 NNW 9 13 5 7 1009.8 1009.4 8.6
20/03:30am 12.6 12.0 12.3 98 0.2 NNW 7 11 4 6 1009.7 1009.3 8.6
20/03:00am 12.6 12.9 12.3 98 0.2 WNW 2 9 1 5 1009.7 1009.3 8.6
20/02:30am 12.7 13.5 12.4 98 0.2 CALM 0 4 0 2 1009.7 1009.3 8.6
20/02:00am 12.5 12.0 12.2 98 0.2 NNW 6 9 3 5 1009.7 1009.3 8.4
20/01:30am 12.5 11.9 12.2 98 0.2 N 7 11 4 6 1009.7 1009.3 8.4
20/01:00am 12.5 11.4 12.0 97 0.3 NNW 9 13 5 7 1009.9 1009.5 8.4
20/12:30am 12.6 10.8 12.1 97 0.3 N 13 19 7 10 1010.0 1009.6 8.4
20/12:00am 12.2 10.6 11.6 96 0.3 N 11 15 6 8 1010.1 1009.7 8.4
 
Date/Time
WST
Temp
°C
App
Temp
°C
Dew
Point
Rel
Hum
%
Delta-T
°C
Wind Press
QNH
hPa
Press
MSL
hPa
Rain
since 9 am
mm
Dir
 
Spd
km/h
Gust
km/h
Spd
kts
Gust
kts
19/11:30pm 12.7 10.4 11.9 95 0.4 N 15 20 8 11 1010.3 1009.9 8.4
19/11:00pm 13.0 11.7 12.5 97 0.3 N 11 22 6 12 1010.7 1010.3 8.4
19/10:30pm 13.3 12.5 13.0 98 0.2 N 9 11 5 6 1010.8 1010.4 8.4
19/10:00pm 13.4 12.7 13.1 98 0.2 NE 9 11 5 6 1010.8 1010.4 8.4
19/09:30pm 13.8 13.6 13.5 98 0.2 N 7 9 4 5 1010.8 1010.4 8.4
19/09:00pm 14.2 13.4 13.9 98 0.2 NNE 11 17 6 9 1011.2 1010.8 8.4
19/08:30pm 14.5 13.0 14.2 98 0.2 ENE 15 22 8 12 1011.1 1010.7 8.4
19/08:00pm 14.3 14.2 14.0 98 0.2 E 7 13 4 7 1010.9 1010.5 8.4
19/07:30pm 14.4 14.4 14.1 98 0.2 E 7 11 4 6 1011.5 1011.1 8.4
19/07:00pm 14.1 12.8 13.8 98 0.2 ESE 13 20 7 11 1011.1 1010.7 8.4
19/06:30pm 13.8 11.7 13.5 98 0.2 SE 17 22 9 12 1011.1 1010.7 8.2
19/06:00pm 13.4 11.1 13.1 98 0.2 SE 17 24 9 13 1010.9 1010.5 8.0
19/05:30pm 13.5 10.8 13.0 97 0.3 SE 19 26 10 14 1011.1 1010.7 7.8
19/05:00pm 13.2 9.1 12.7 97 0.3 ESE 26 35 14 19 1011.5 1011.1 7.2
19/04:30pm 13.6 8.5 13.1 97 0.3 ESE 32 46 17 25 1011.4 1011.0 6.8
19/04:05pm 13.4 8.0 12.9 97 0.3 ESE 33 52 18 28 1012.0 1011.6 6.6
19/04:00pm 13.4 7.6 12.8 96 0.3 ESE 35 52 19 28 1012.0 1011.6 6.6
19/03:39pm 13.4 7.6 12.8 96 0.3 ESE 35 54 19 29 1012.4 1012.0 6.2
19/03:30pm 13.5 7.8 12.9 96 0.3 ESE 35 52 19 28 1012.2 1011.8 6.0
19/03:00pm 13.6 6.8 13.0 96 0.3 ESE 41 57 22 31 1011.9 1011.5 5.6
19/02:36pm 13.4 7.2 12.8 96 0.3 ESE 37 61 20 33 1012.4 1012.0 5.0
19/02:30pm 13.6 7.1 13.0 96 0.3 ESE 39 52 21 28 1012.5 1012.1 5.0
19/02:00pm 13.4 6.9 12.8 96 0.3 ESE 39 57 21 31 1012.8 1012.4 4.8
19/01:44pm 13.2 7.0 12.6 96 0.3 ESE 37 56 20 30 1012.8 1012.4 4.6
19/01:30pm 13.3 7.5 12.7 96 0.3 ESE 35 52 19 28 1012.8 1012.4 4.4
19/01:27pm 13.3 7.5 12.7 96 0.3 ESE 35 54 19 29 1012.8 1012.4 4.4
19/01:00pm 13.2 6.6 12.6 96 0.3 ESE 39 54 21 29 1013.1 1012.7 3.6
19/12:32pm 12.9 7.4 12.3 96 0.3 ESE 33 52 18 28 1013.9 1013.6 3.2
19/12:30pm 12.8 6.8 12.2 96 0.3 ESE 35 52 19 28 1013.9 1013.6 3.0
19/12:01pm 12.4 5.2 11.8 96 0.3 ESE 41 59 22 32 1014.7 1014.3 2.6
19/12:00pm 12.5 5.3 11.9 96 0.3 ESE 41 57 22 31 1014.7 1014.3 2.6
19/11:31am 12.5 5.3 11.9 96 0.3 ESE 41 59 22 32 1015.4 1015.0 2.2
19/11:30am 12.4 4.8 11.8 96 0.3 ESE 43 59 23 32 1015.4 1015.0 2.2
19/11:07am 12.4 5.9 11.8 96 0.3 ESE 37 56 20 30 1015.6 1015.2 1.8
19/11:00am 12.4 5.9 11.8 96 0.3 ESE 37 52 20 28 1015.8 1015.4 1.8
19/10:41am 11.9 5.3 11.3 96 0.3 SE 37 59 20 32 1016.3 1016.0 1.4
19/10:30am 12.1 5.2 11.5 96 0.3 SE 39 54 21 29 1016.1 1015.7 1.2
19/10:00am 11.7 5.4 11.1 96 0.3 ESE 35 54 19 29 1017.1 1016.8 0.6
19/09:58am 11.7 5.4 11.1 96 0.3 ESE 35 54 19 29 1017.1 1016.8 0.6
19/09:30am 12.0 5.0 11.4 96 0.3 ESE 39 54 21 29 1017.3 1017.0 0.4
19/09:14am 11.5 4.8 10.9 96 0.3 SE 37 59 20 32 1017.1 1016.8 0.2
19/09:00am 11.6 4.9 11.0 96 0.3 ESE 37 52 20 28 1017.6 1017.2 22.8
19/08:30am 11.4 5.6 10.8 96 0.3 ESE 32 52 17 28 1017.8 1017.4 22.6
19/08:11am 11.2 5.1 10.6 96 0.3 ESE 33 52 18 28 1017.9 1017.5 22.4
19/08:00am 11.2 4.8 10.6 96 0.3 SE 35 50 19 27 1018.0 1017.6 22.4
19/07:30am 11.1 4.7 10.6 97 0.3 ESE 35 57 19 31 1017.7 1017.3 22.4
19/07:26am 11.0 4.5 10.5 97 0.3 ESE 35 57 19 31 1017.7 1017.3 22.4
19/07:00am 10.9 5.0 10.4 97 0.3 SE 32 43 17 23 1018.1 1017.7 22.0
19/06:30am 10.8 4.8 10.2 96 0.3 ESE 32 43 17 23 1018.4 1018.0 21.6
19/06:00am 10.7 6.2 10.1 96 0.3 ESE 24 39 13 21 1018.2 1017.8 21.4
19/05:33am 10.8 4.9 10.3 97 0.3 ESE 32 50 17 27 1017.8 1017.4 21.4
19/05:30am 11.0 5.1 10.5 97 0.3 ESE 32 46 17 25 1017.8 1017.4 21.2
19/05:00am 11.1 5.2 10.6 97 0.3 ESE 32 44 17 24 1017.8 1017.4 20.8
19/04:38am 11.0 5.1 10.5 97 0.3 SE 32 52 17 28 1017.2 1016.9 20.6
19/04:30am 11.0 5.9 10.5 97 0.3 SE 28 41 15 22 1017.5 1017.1 20.6
19/04:00am 10.8 6.0 10.3 97 0.3 SE 26 44 14 24 1017.6 1017.2 20.4
19/03:30am 10.6 5.7 10.1 97 0.3 SE 26 39 14 21 1017.6 1017.2 20.0
19/03:00am 10.6 5.7 10.1 97 0.3 ESE 26 41 14 22 1017.8 1017.4 19.6
19/02:30am 10.3 6.5 9.8 97 0.3 SE 20 33 11 18 1018.0 1017.6 19.2
19/02:00am 10.3 6.1 9.7 96 0.3 ESE 22 32 12 17 1018.3 1017.9 18.8
19/01:30am 10.3 5.3 9.7 96 0.3 SE 26 35 14 19 1018.1 1017.7 18.6
19/01:00am 10.4 5.5 9.9 97 0.3 ESE 26 39 14 21 1018.7 1018.3 18.6
19/12:30am 10.5 6.0 9.9 96 0.3 SE 24 33 13 18 1019.3 1019.0 18.4
19/12:00am 10.7 6.2 10.1 96 0.3 SE 24 39 13 21 1019.4 1019.1 18.4
 
Date/Time
WST
Temp
°C
App
Temp
°C
Dew
Point
Rel
Hum
%
Delta-T
°C
Wind Press
QNH
hPa
Press
MSL
hPa
Rain
since 9 am
mm
Dir
 
Spd
km/h
Gust
km/h
Spd
kts
Gust
kts
18/11:30pm 10.9 6.1 10.3 96 0.3 ESE 26 35 14 19 1019.8 1019.5 18.2
18/11:00pm 10.7 7.2 10.2 97 0.3 SE 19 24 10 13 1019.4 1019.1 18.2
18/10:30pm 10.6 7.1 10.1 97 0.3 SE 19 30 10 16 1019.6 1019.3 18.2
18/10:00pm 10.7 7.0 10.2 97 0.3 SE 20 33 11 18 1019.5 1019.2 18.2
18/09:30pm 10.5 6.8 10.0 97 0.3 SE 20 30 11 16 1019.2 1018.9 18.2
18/09:00pm 10.4 6.6 9.8 96 0.3 SE 20 30 11 16 1019.9 1019.6 18.2
18/08:30pm 10.5 6.3 9.9 96 0.3 ESE 22 33 12 18 1019.9 1019.6 18.0
18/08:00pm 10.6 6.1 10.0 96 0.3 ESE 24 35 13 19 1019.7 1019.4 17.8
18/07:30pm 10.8 5.2 10.2 96 0.3 SE 30 41 16 22 1018.8 1018.4 17.8
18/07:00pm 11.0 5.9 10.5 97 0.3 SE 28 39 15 21 1018.0 1017.6 17.8
18/06:30pm 10.9 6.5 10.4 97 0.3 SE 24 33 13 18 1017.8 1017.4 16.4
18/06:00pm 11.3 6.6 10.8 97 0.3 SE 26 39 14 21 1017.6 1017.2 13.8
18/05:37pm 11.4 6.4 10.8 96 0.3 SE 28 48 15 26 1016.9 1016.6 13.0
18/05:30pm 11.6 6.6 11.0 96 0.3 SE 28 41 15 22 1016.8 1016.5 12.8
18/05:00pm 11.9 7.7 11.1 95 0.4 SE 24 33 13 18 1016.3 1016.0 12.8
18/04:30pm 11.8 6.8 11.0 95 0.4 SE 28 37 15 20 1015.9 1015.5 12.8
18/04:00pm 11.7 7.5 11.1 96 0.3 SE 24 39 13 21 1015.4 1015.0 12.8
18/03:30pm 12.2 8.2 11.7 97 0.3 SE 24 37 13 20 1015.2 1014.8 11.8
18/03:00pm 12.1 8.0 11.5 96 0.3 SE 24 33 13 18 1015.5 1015.1 11.6
18/02:30pm 12.2 7.8 11.6 96 0.3 SE 26 35 14 19 1015.6 1015.2 11.4
18/02:00pm 12.2 8.5 11.6 96 0.3 ESE 22 32 12 17 1015.9 1015.5 11.0
18/01:30pm 12.5 7.7 11.7 95 0.4 SE 28 41 15 22 1015.3 1014.9 11.0
18/01:00pm 12.4 8.4 11.8 96 0.3 SE 24 35 13 19 1015.1 1014.7 10.8
18/12:30pm 12.1 7.3 11.5 96 0.3 ESE 28 39 15 21 1015.2 1014.8 10.8
18/12:00pm 12.0 7.2 11.5 97 0.3 ESE 28 37 15 20 1015.3 1014.9 10.6

Other Formats:

Comma delimited format used in spreadsheet applications
http://www.bom.gov.au/fwo/IDW60801/IDW60801.95636.axf

JavaScript Object Notation format (JSON) in row-major order
http://www.bom.gov.au/fwo/IDW60801/IDW60801.95636.json